createdAt,value
2018-08-31T00:00:41.365Z,0.00
2018-08-31T00:01:41.046Z,0.00
2018-08-31T00:02:41.029Z,0.00
2018-08-31T00:03:41.005Z,0.00
2018-08-31T00:04:40.998Z,0.00
2018-08-31T00:05:41.030Z,0.00
2018-08-31T00:07:41.238Z,0.00
2018-08-31T00:08:40.922Z,0.00
2018-08-31T00:09:41.004Z,0.00
2018-08-31T00:10:40.887Z,0.00
2018-08-31T00:11:40.867Z,0.00
2018-08-31T00:12:40.855Z,0.00
2018-08-31T00:13:40.989Z,0.00
2018-08-31T00:14:41.119Z,0.00
2018-08-31T00:15:40.798Z,0.00
2018-08-31T00:17:40.770Z,0.00
2018-08-31T00:18:40.747Z,0.00
2018-08-31T00:19:40.733Z,0.00
2018-08-31T00:21:40.699Z,0.00
2018-08-31T00:25:41.097Z,0.00
2018-08-31T00:26:40.614Z,0.00
2018-08-31T00:28:40.574Z,0.00
2018-08-31T00:29:40.563Z,0.00
2018-08-31T00:30:40.549Z,0.00
2018-08-31T00:31:40.824Z,0.00
2018-08-31T00:33:40.493Z,0.00
2018-08-31T00:34:40.482Z,0.00
2018-08-31T00:36:40.437Z,0.00
2018-08-31T00:37:40.722Z,0.00
2018-08-31T00:39:40.396Z,0.00
2018-08-31T00:40:40.625Z,0.00
2018-08-31T00:41:40.355Z,0.00
2018-08-31T00:42:40.338Z,0.00
2018-08-31T00:43:40.621Z,0.00
2018-08-31T00:45:40.285Z,0.00
2018-08-31T00:47:40.500Z,0.00
2018-08-31T00:48:40.234Z,0.00
2018-08-31T00:49:40.515Z,0.00
2018-08-31T00:50:40.206Z,0.00
2018-08-31T00:51:40.183Z,0.00
2018-08-31T00:52:40.162Z,0.00
2018-08-31T00:53:40.143Z,0.00
2018-08-31T00:54:40.126Z,0.00
2018-08-31T00:55:40.411Z,0.00
2018-08-31T00:56:40.098Z,0.00
2018-08-31T00:57:40.079Z,0.00
2018-08-31T00:58:40.317Z,0.00
2018-08-31T00:59:40.091Z,0.00
2018-08-31T01:02:39.997Z,0.00
2018-08-31T01:03:40.278Z,0.00
2018-08-31T01:04:39.965Z,0.00
2018-08-31T01:05:39.952Z,0.00
2018-08-31T01:11:39.833Z,0.00
2018-08-31T01:13:39.902Z,0.00
2018-08-31T01:14:39.783Z,0.00
2018-08-31T01:15:39.769Z,0.00
2018-08-31T01:16:39.751Z,0.00
2018-08-31T01:18:40.117Z,0.00
2018-08-31T01:19:39.750Z,0.00
2018-08-31T01:20:39.782Z,0.00
2018-08-31T01:21:39.865Z,0.00
2018-08-31T01:22:39.644Z,0.00
2018-08-31T01:23:39.682Z,0.00
2018-08-31T01:24:39.618Z,0.00
2018-08-31T01:25:39.903Z,0.00
2018-08-31T01:26:40.034Z,0.00
2018-08-31T01:27:39.578Z,0.00
2018-08-31T01:28:39.568Z,0.00
2018-08-31T01:30:39.508Z,0.00
2018-08-31T01:34:39.735Z,0.00
2018-08-31T01:35:39.422Z,0.00
2018-08-31T01:36:39.510Z,0.00
2018-08-31T01:37:39.438Z,0.00
2018-08-31T01:39:39.401Z,0.00
2018-08-31T01:41:39.317Z,0.00
2018-08-31T01:43:39.577Z,0.00
2018-08-31T01:44:39.276Z,0.00
2018-08-31T01:45:39.259Z,0.00
2018-08-31T01:46:39.229Z,0.00
2018-08-31T01:47:39.208Z,0.00
2018-08-31T01:48:39.198Z,0.00
2018-08-31T01:50:39.154Z,0.00
2018-08-31T01:52:39.139Z,0.00
2018-08-31T01:54:39.137Z,0.00
2018-08-31T01:55:39.166Z,0.00
2018-08-31T02:01:38.965Z,0.00
2018-08-31T02:02:39.246Z,0.00
2018-08-31T02:03:38.929Z,0.00
2018-08-31T02:04:38.914Z,0.00
2018-08-31T02:06:38.877Z,0.00
2018-08-31T02:07:38.914Z,0.00
2018-08-31T02:08:39.141Z,0.00
2018-08-31T02:11:38.876Z,0.00
2018-08-31T02:12:38.770Z,0.00
2018-08-31T02:13:38.754Z,0.00
2018-08-31T02:14:39.032Z,0.00
2018-08-31T02:17:38.827Z,0.00
2018-08-31T02:18:38.658Z,0.00
2018-08-31T02:20:38.727Z,0.00
2018-08-31T02:21:38.914Z,0.00
2018-08-31T02:23:38.621Z,0.00
2018-08-31T02:24:38.566Z,0.00
2018-08-31T02:25:38.539Z,0.00
2018-08-31T02:26:38.519Z,0.00
2018-08-31T02:27:38.807Z,0.00
2018-08-31T02:29:38.518Z,0.00
2018-08-31T02:31:38.428Z,0.00
2018-08-31T02:32:38.410Z,0.00
2018-08-31T02:33:38.690Z,0.00
2018-08-31T02:34:38.380Z,0.00
2018-08-31T02:35:38.355Z,0.00
2018-08-31T02:36:38.339Z,0.00
2018-08-31T02:37:38.325Z,0.00
2018-08-31T02:38:38.353Z,0.00
2018-08-31T02:39:38.286Z,0.00
2018-08-31T02:40:38.570Z,0.00
2018-08-31T02:41:38.303Z,0.00
2018-08-31T02:42:38.230Z,0.00
2018-08-31T02:43:38.226Z,0.00
2018-08-31T02:44:38.246Z,0.00
2018-08-31T02:45:38.261Z,0.00
2018-08-31T02:46:38.164Z,0.00
2018-08-31T02:47:38.449Z,0.00
2018-08-31T02:48:38.126Z,0.00
2018-08-31T02:49:38.107Z,0.00
2018-08-31T02:50:38.138Z,0.00
2018-08-31T02:51:38.172Z,0.00
2018-08-31T02:54:38.018Z,0.00
2018-08-31T02:55:38.304Z,0.00
2018-08-31T02:56:38.065Z,0.00
2018-08-31T02:57:37.968Z,0.00
2018-08-31T02:58:38.040Z,0.00
2018-08-31T02:59:38.026Z,0.00
2018-08-31T03:00:37.913Z,0.00
2018-08-31T03:01:37.890Z,0.00
2018-08-31T03:02:38.180Z,0.00
2018-08-31T03:03:37.855Z,0.00
2018-08-31T03:05:37.819Z,0.00
2018-08-31T03:07:37.928Z,0.00
2018-08-31T03:09:37.747Z,0.00
2018-08-31T03:10:38.028Z,0.00
2018-08-31T03:14:37.826Z,0.00
2018-08-31T03:15:37.758Z,0.00
2018-08-31T03:16:37.740Z,0.00
2018-08-31T03:17:37.904Z,0.00
2018-08-31T03:18:37.704Z,0.00
2018-08-31T03:19:37.692Z,0.00
2018-08-31T03:20:37.804Z,0.00
2018-08-31T03:22:37.525Z,0.00
2018-08-31T03:23:37.504Z,0.00
2018-08-31T03:24:37.881Z,0.00
2018-08-31T03:25:37.470Z,0.00
2018-08-31T03:27:37.724Z,0.00
2018-08-31T03:28:37.414Z,0.00
2018-08-31T03:29:37.405Z,0.00
2018-08-31T03:30:37.669Z,0.00
2018-08-31T03:31:37.476Z,0.00
2018-08-31T03:32:37.458Z,0.00
2018-08-31T03:33:37.368Z,0.00
2018-08-31T03:36:37.266Z,0.00
2018-08-31T03:38:37.533Z,0.00
2018-08-31T03:39:37.258Z,0.00
2018-08-31T03:40:37.192Z,0.00
2018-08-31T03:41:37.175Z,0.00
2018-08-31T03:42:37.209Z,0.00
2018-08-31T03:43:37.143Z,0.00
2018-08-31T03:44:37.420Z,0.00
2018-08-31T03:45:37.157Z,0.00
2018-08-31T03:47:37.227Z,0.00
2018-08-31T03:48:37.191Z,0.00
2018-08-31T03:49:37.027Z,0.00
2018-08-31T03:50:37.323Z,0.00
2018-08-31T03:51:37.252Z,0.00
2018-08-31T03:52:36.974Z,0.00
2018-08-31T03:53:37.006Z,0.00
2018-08-31T03:54:36.938Z,0.00
2018-08-31T03:55:36.919Z,0.00
2018-08-31T03:56:37.202Z,0.00
2018-08-31T03:57:36.884Z,0.00
2018-08-31T03:58:36.865Z,0.00
2018-08-31T03:59:36.848Z,4.00
2018-08-31T04:00:36.830Z,4.00
2018-08-31T04:01:36.812Z,0.00
2018-08-31T04:02:37.095Z,4.00
2018-08-31T04:03:36.775Z,4.00
2018-08-31T04:04:36.768Z,4.00
2018-08-31T04:05:36.740Z,4.00
2018-08-31T04:07:36.810Z,8.00
2018-08-31T04:08:36.692Z,8.00
2018-08-31T04:11:36.979Z,8.00
2018-08-31T04:12:36.631Z,12.00
2018-08-31T04:13:36.597Z,12.00
2018-08-31T04:14:36.575Z,16.00
2018-08-31T04:15:36.576Z,20.00
2018-08-31T04:16:36.541Z,20.00
2018-08-31T04:17:36.599Z,24.00
2018-08-31T04:18:36.855Z,24.00
2018-08-31T04:19:36.491Z,32.00
2018-08-31T04:20:36.464Z,32.00
2018-08-31T04:21:36.449Z,40.00
2018-08-31T04:22:36.428Z,40.00
2018-08-31T04:24:36.698Z,52.00
2018-08-31T04:25:36.431Z,56.00
2018-08-31T04:26:36.364Z,64.00
2018-08-31T04:27:36.359Z,68.00
2018-08-31T04:28:36.323Z,68.00
2018-08-31T04:29:36.319Z,80.00
2018-08-31T04:30:36.285Z,84.00
2018-08-31T04:32:36.554Z,96.00
2018-08-31T04:33:36.235Z,104.00
2018-08-31T04:34:37.967Z,104.00
2018-08-31T04:35:36.319Z,112.00
2018-08-31T04:36:36.281Z,124.00
2018-08-31T04:37:36.162Z,128.00
2018-08-31T04:38:36.139Z,140.00
2018-08-31T04:39:36.424Z,148.00
2018-08-31T04:40:36.154Z,156.00
2018-08-31T04:41:36.093Z,164.00
2018-08-31T04:42:36.070Z,176.00
2018-08-31T04:43:36.048Z,184.00
2018-08-31T04:45:36.315Z,204.00
2018-08-31T04:46:36.067Z,212.00
2018-08-31T04:47:35.975Z,220.00
2018-08-31T04:49:35.938Z,240.00
2018-08-31T04:50:35.917Z,252.00
2018-08-31T04:51:35.898Z,268.00
2018-08-31T04:52:36.381Z,272.00
2018-08-31T04:54:35.858Z,296.00
2018-08-31T04:55:35.878Z,308.00
2018-08-31T04:56:35.811Z,320.00
2018-08-31T04:57:35.794Z,328.00
2018-08-31T04:58:36.073Z,336.00
2018-08-31T04:59:35.755Z,348.00
2018-08-31T05:00:35.738Z,356.00
2018-08-31T05:01:35.770Z,372.00
2018-08-31T05:02:35.702Z,380.00
2018-08-31T05:03:35.768Z,388.00
2018-08-31T05:04:35.974Z,404.00
2018-08-31T05:05:35.647Z,416.00
2018-08-31T05:06:35.790Z,416.00
2018-08-31T05:07:35.614Z,424.00
2018-08-31T05:08:35.645Z,440.00
2018-08-31T05:09:35.632Z,452.00
2018-08-31T05:10:35.858Z,460.00
2018-08-31T05:11:35.537Z,464.00
2018-08-31T05:12:35.527Z,476.00
2018-08-31T05:13:35.555Z,484.00
2018-08-31T05:14:35.488Z,492.00
2018-08-31T05:15:35.469Z,500.00
2018-08-31T05:16:35.757Z,508.00
2018-08-31T05:17:35.435Z,520.00
2018-08-31T05:18:35.827Z,528.00
2018-08-31T05:20:35.378Z,540.00
2018-08-31T05:21:35.360Z,544.00
2018-08-31T05:22:35.651Z,552.00
2018-08-31T05:23:35.323Z,564.00
2018-08-31T05:24:35.309Z,568.00
2018-08-31T05:25:35.290Z,572.00
2018-08-31T05:26:35.271Z,580.00
2018-08-31T05:27:35.248Z,592.00
2018-08-31T05:28:35.582Z,588.00
2018-08-31T05:29:35.213Z,600.00
2018-08-31T05:30:35.196Z,600.00
2018-08-31T05:31:35.179Z,612.00
2018-08-31T05:32:35.162Z,624.00
2018-08-31T05:33:35.143Z,632.00
2018-08-31T05:34:35.174Z,636.00
2018-08-31T05:35:35.414Z,636.00
2018-08-31T05:36:35.092Z,656.00
2018-08-31T05:37:35.175Z,660.00
2018-08-31T05:38:35.057Z,676.00
2018-08-31T05:39:35.040Z,676.00
2018-08-31T05:40:35.025Z,692.00
2018-08-31T05:41:35.005Z,708.00
2018-08-31T05:42:35.287Z,720.00
2018-08-31T05:43:34.993Z,720.00
2018-08-31T05:44:35.454Z,736.00
2018-08-31T05:45:34.933Z,740.00
2018-08-31T05:46:34.911Z,748.00
2018-08-31T05:47:34.895Z,744.00
2018-08-31T05:48:34.881Z,756.00
2018-08-31T05:50:35.199Z,764.00
2018-08-31T05:51:34.823Z,776.00
2018-08-31T05:52:34.818Z,792.00
2018-08-31T05:53:34.917Z,820.00
2018-08-31T05:54:34.774Z,792.00
2018-08-31T05:55:34.754Z,812.00
2018-08-31T05:58:34.998Z,832.00
2018-08-31T05:59:34.689Z,872.00
2018-08-31T06:00:34.770Z,840.00
2018-08-31T06:01:34.705Z,852.00
2018-08-31T06:02:34.629Z,872.00
2018-08-31T06:03:34.614Z,852.00
2018-08-31T06:04:34.594Z,868.00
2018-08-31T06:05:34.876Z,872.00
2018-08-31T06:06:34.717Z,876.00
2018-08-31T06:07:34.580Z,912.00
2018-08-31T06:08:34.533Z,936.00
2018-08-31T06:09:34.519Z,912.00
2018-08-31T06:10:34.516Z,912.00
2018-08-31T06:11:35.890Z,952.00
2018-08-31T06:12:35.008Z,932.00
2018-08-31T06:13:34.435Z,952.00
2018-08-31T06:14:34.416Z,944.00
2018-08-31T06:15:34.417Z,964.00
2018-08-31T06:16:34.393Z,956.00
2018-08-31T06:17:35.783Z,964.00
2018-08-31T06:18:34.611Z,960.00
2018-08-31T06:19:40.898Z,976.00
2018-08-31T06:21:34.301Z,980.00
2018-08-31T06:22:34.285Z,988.00
2018-08-31T06:23:34.271Z,984.00
2018-08-31T06:24:34.553Z,992.00
2018-08-31T06:25:34.542Z,1004.00
2018-08-31T06:26:34.224Z,1012.00
2018-08-31T06:27:34.194Z,1004.00
2018-08-31T06:28:34.179Z,1064.00
2018-08-31T06:29:34.164Z,1024.00
2018-08-31T06:30:34.191Z,1020.00
2018-08-31T06:31:34.632Z,1024.00
2018-08-31T06:32:34.118Z,1048.00
2018-08-31T06:33:34.097Z,1068.00
2018-08-31T06:34:34.083Z,1044.00
2018-08-31T06:35:34.064Z,1064.00
2018-08-31T06:36:34.145Z,1044.00
2018-08-31T06:37:34.327Z,1084.00
2018-08-31T06:38:34.009Z,1072.00
2018-08-31T06:39:33.993Z,1096.00
2018-08-31T06:40:33.991Z,1132.00
2018-08-31T06:41:33.962Z,1100.00
2018-08-31T06:42:33.943Z,1140.00
2018-08-31T06:43:34.228Z,1152.00
2018-08-31T06:44:33.908Z,1108.00
2018-08-31T06:45:33.893Z,1160.00
2018-08-31T06:46:33.881Z,1136.00
2018-08-31T06:47:33.914Z,1144.00
2018-08-31T06:48:33.843Z,1140.00
2018-08-31T06:49:34.564Z,1132.00
2018-08-31T06:50:33.809Z,1148.00
2018-08-31T06:51:34.051Z,1136.00
2018-08-31T06:52:33.902Z,1144.00
2018-08-31T06:53:33.809Z,1208.00
2018-08-31T06:54:33.744Z,1168.00
2018-08-31T06:55:34.025Z,1188.00
2018-08-31T06:56:34.316Z,1176.00
2018-08-31T06:57:35.110Z,1196.00
2018-08-31T06:58:33.680Z,1184.00
2018-08-31T06:59:33.716Z,1272.00
2018-08-31T07:00:33.848Z,1248.00
2018-08-31T07:01:33.934Z,1208.00
2018-08-31T07:02:33.608Z,1228.00
2018-08-31T07:03:33.598Z,1228.00
2018-08-31T07:04:34.184Z,1272.00
2018-08-31T07:05:46.607Z,1280.00
2018-08-31T07:06:33.550Z,1292.00
2018-08-31T07:07:33.533Z,1296.00
2018-08-31T07:08:33.830Z,1304.00
2018-08-31T07:09:33.701Z,1308.00
2018-08-31T07:10:33.486Z,1348.00
2018-08-31T07:11:33.522Z,1352.00
2018-08-31T07:12:33.743Z,1352.00
2018-08-31T07:13:33.431Z,1484.00
2018-08-31T07:14:34.045Z,1428.00
2018-08-31T07:15:33.704Z,1564.00
2018-08-31T07:16:33.391Z,1552.00
2018-08-31T07:17:33.424Z,1464.00
2018-08-31T07:19:33.345Z,1496.00
2018-08-31T07:20:33.528Z,1660.00
2018-08-31T07:21:33.312Z,1600.00
2018-08-31T07:22:33.613Z,1648.00
2018-08-31T07:23:33.346Z,1720.00
2018-08-31T07:24:39.532Z,1836.00
2018-08-31T07:25:33.252Z,1912.00
2018-08-31T07:26:52.531Z,1804.00
2018-08-31T07:27:33.221Z,1804.00
2018-08-31T07:28:33.212Z,1920.00
2018-08-31T07:29:34.904Z,2228.00
2018-08-31T07:30:36.206Z,2092.00
2018-08-31T07:31:33.364Z,2032.00
2018-08-31T07:32:33.175Z,2024.00
2018-08-31T07:33:33.738Z,1992.00
2018-08-31T07:34:33.555Z,1956.00
2018-08-31T07:35:33.143Z,2128.00
2018-08-31T07:36:33.379Z,2212.00
2018-08-31T07:37:58.740Z,2056.00
2018-08-31T07:38:33.304Z,2100.00
2018-08-31T07:39:33.045Z,2144.00
2018-08-31T07:40:36.026Z,2212.00
2018-08-31T07:41:33.608Z,2184.00
2018-08-31T07:42:34.402Z,2128.00
2018-08-31T07:43:39.542Z,2148.00
2018-08-31T07:44:33.425Z,2180.00
2018-08-31T07:45:33.148Z,2288.00
2018-08-31T07:46:33.031Z,2184.00
2018-08-31T07:47:32.915Z,2368.00
2018-08-31T07:48:33.510Z,2312.00
2018-08-31T07:49:32.883Z,2344.00
2018-08-31T07:50:33.170Z,2312.00
2018-08-31T07:51:32.857Z,2312.00
2018-08-31T07:52:33.611Z,2588.00
2018-08-31T07:53:32.836Z,2496.00
2018-08-31T07:54:32.824Z,2440.00
2018-08-31T07:55:32.798Z,2540.00
2018-08-31T07:56:33.095Z,2600.00
2018-08-31T07:57:32.775Z,2556.00
2018-08-31T07:58:32.811Z,2536.00
2018-08-31T07:59:32.747Z,2472.00
2018-08-31T08:00:32.777Z,2792.00
2018-08-31T08:01:32.966Z,2732.00
2018-08-31T08:02:33.001Z,2372.00
2018-08-31T08:03:32.684Z,2836.00
2018-08-31T08:04:32.668Z,2784.00
2018-08-31T08:05:32.748Z,2648.00
2018-08-31T08:06:32.651Z,2972.00
2018-08-31T08:07:33.353Z,3024.00
2018-08-31T08:08:32.911Z,2904.00
2018-08-31T08:09:32.600Z,2840.00
2018-08-31T08:10:32.584Z,2864.00
2018-08-31T08:11:45.304Z,3156.00
2018-08-31T08:12:32.555Z,3196.00
2018-08-31T08:13:33.197Z,2920.00
2018-08-31T08:14:32.830Z,3180.00
2018-08-31T08:15:51.719Z,3212.00
2018-08-31T08:16:32.706Z,2996.00
2018-08-31T08:17:35.520Z,3032.00
2018-08-31T08:18:32.674Z,3216.00
2018-08-31T08:19:33.202Z,3096.00
2018-08-31T08:20:39.011Z,3320.00
2018-08-31T08:21:33.043Z,3356.00
2018-08-31T08:22:32.419Z,3480.00
2018-08-31T08:23:32.402Z,3100.00
2018-08-31T08:24:32.388Z,3096.00
2018-08-31T08:25:32.983Z,3280.00
2018-08-31T08:26:32.564Z,3192.00
2018-08-31T08:27:33.764Z,3424.00
2018-08-31T08:28:32.587Z,3572.00
2018-08-31T08:29:35.357Z,3396.00
2018-08-31T08:30:32.515Z,3284.00
2018-08-31T08:31:32.597Z,3540.00
2018-08-31T08:32:32.794Z,3248.00
2018-08-31T08:33:32.272Z,3396.00
2018-08-31T08:34:44.995Z,3424.00
2018-08-31T08:35:51.520Z,3652.00
2018-08-31T08:36:35.267Z,3448.00
2018-08-31T08:37:33.685Z,3372.00
2018-08-31T08:38:32.206Z,3328.00
2018-08-31T08:39:32.799Z,3712.00
2018-08-31T08:40:32.382Z,3768.00
2018-08-31T08:41:32.162Z,3460.00
2018-08-31T08:42:32.215Z,3404.00
2018-08-31T08:43:32.139Z,3604.00
2018-08-31T08:44:32.735Z,3588.00
2018-08-31T08:45:45.207Z,3892.00
2018-08-31T08:46:32.103Z,3672.00
2018-08-31T08:47:33.502Z,3636.00
2018-08-31T08:48:33.627Z,3900.00
2018-08-31T08:49:32.068Z,4524.00
2018-08-31T08:50:32.159Z,3948.00
2018-08-31T08:51:32.290Z,3708.00
2018-08-31T08:52:32.326Z,3588.00
2018-08-31T08:53:32.125Z,3592.00
2018-08-31T08:54:32.201Z,3780.00
2018-08-31T08:55:31.985Z,3540.00
2018-08-31T08:56:31.972Z,3660.00
2018-08-31T08:57:32.015Z,3844.00
2018-08-31T08:58:31.947Z,3652.00
2018-08-31T09:00:32.466Z,3056.00
2018-08-31T09:01:32.170Z,3748.00
2018-08-31T09:02:44.635Z,3672.00
2018-08-31T09:03:31.885Z,3652.00
2018-08-31T09:04:31.878Z,3512.00
2018-08-31T09:06:32.154Z,3736.00
2018-08-31T09:07:31.835Z,3604.00
2018-08-31T09:08:31.825Z,3920.00
2018-08-31T09:09:31.864Z,4172.00
2018-08-31T09:10:31.800Z,4384.00
2018-08-31T09:11:51.069Z,4352.00
2018-08-31T09:12:31.824Z,4316.00
2018-08-31T09:13:32.267Z,3620.00
2018-08-31T09:14:31.752Z,4688.00
2018-08-31T09:15:31.789Z,4804.00
2018-08-31T09:16:32.334Z,4792.00
2018-08-31T09:17:31.719Z,4852.00
2018-08-31T09:18:33.210Z,4200.00
2018-08-31T09:20:31.987Z,4104.00
2018-08-31T09:21:34.177Z,4292.00
2018-08-31T09:22:31.658Z,4268.00
2018-08-31T09:23:31.644Z,4068.00
2018-08-31T09:24:31.725Z,3832.00
2018-08-31T09:25:33.039Z,4424.00
2018-08-31T09:26:31.912Z,3512.00
2018-08-31T09:27:31.597Z,3916.00
2018-08-31T09:28:31.584Z,4132.00
2018-08-31T09:29:31.777Z,3996.00
2018-08-31T09:30:31.610Z,3464.00
2018-08-31T09:31:31.553Z,3688.00
2018-08-31T09:32:31.875Z,4192.00
2018-08-31T09:33:34.052Z,4056.00
2018-08-31T09:34:31.513Z,4540.00
2018-08-31T09:35:34.534Z,4660.00
2018-08-31T09:36:31.695Z,4628.00
2018-08-31T09:37:32.088Z,4164.00
2018-08-31T09:38:31.851Z,3996.00
2018-08-31T09:39:31.505Z,4252.00
2018-08-31T09:40:31.443Z,4692.00
2018-08-31T09:41:31.434Z,4864.00
2018-08-31T09:42:32.834Z,4768.00
2018-08-31T09:43:31.410Z,4772.00
2018-08-31T09:44:32.303Z,4920.00
2018-08-31T09:45:31.382Z,4288.00
2018-08-31T09:46:31.374Z,4248.00
2018-08-31T09:47:31.359Z,4116.00
2018-08-31T09:49:31.416Z,4656.00
2018-08-31T09:50:50.882Z,4572.00
2018-08-31T09:51:31.461Z,4500.00
2018-08-31T09:52:34.342Z,5296.00
2018-08-31T09:53:31.291Z,5360.00
2018-08-31T09:54:32.697Z,4956.00
2018-08-31T09:55:31.276Z,4816.00
2018-08-31T09:56:31.261Z,5360.00
2018-08-31T09:57:31.708Z,5236.00
2018-08-31T09:58:31.235Z,6120.00
2018-08-31T10:00:31.220Z,4752.00
2018-08-31T10:01:31.195Z,4852.00
2018-08-31T10:03:31.768Z,5076.00
2018-08-31T10:04:31.159Z,5028.00
2018-08-31T10:05:31.145Z,5220.00
2018-08-31T10:06:31.133Z,6916.00
2018-08-31T10:07:31.120Z,5748.00
2018-08-31T10:08:31.109Z,6160.00
2018-08-31T10:09:31.098Z,5564.00
2018-08-31T10:10:31.393Z,4992.00
2018-08-31T10:11:31.274Z,4996.00
2018-08-31T10:12:31.062Z,5536.00
2018-08-31T10:13:31.350Z,5392.00
2018-08-31T10:14:31.035Z,4792.00
2018-08-31T10:15:34.058Z,4204.00
2018-08-31T10:16:31.017Z,4360.00
2018-08-31T10:17:32.715Z,3896.00
2018-08-31T10:18:31.220Z,3540.00
2018-08-31T10:19:30.988Z,3520.00
2018-08-31T10:20:32.381Z,3396.00
2018-08-31T10:21:30.963Z,2944.00
2018-08-31T10:22:32.443Z,2804.00
2018-08-31T10:23:30.931Z,3284.00
2018-08-31T10:24:31.326Z,3488.00
2018-08-31T10:25:31.514Z,4260.00
2018-08-31T10:26:43.627Z,4500.00
2018-08-31T10:27:30.885Z,4640.00
2018-08-31T10:28:37.202Z,4728.00
2018-08-31T10:29:31.479Z,4512.00
2018-08-31T10:30:31.456Z,5168.00
2018-08-31T10:31:34.172Z,5176.00
2018-08-31T10:32:30.823Z,5092.00
2018-08-31T10:34:30.845Z,5344.00
2018-08-31T10:35:31.390Z,5688.00
2018-08-31T10:36:30.770Z,5028.00
2018-08-31T10:37:31.366Z,5016.00
2018-08-31T10:38:31.249Z,5012.00
2018-08-31T10:39:33.766Z,4964.00
2018-08-31T10:40:30.925Z,5732.00
2018-08-31T10:41:30.710Z,5496.00
2018-08-31T10:42:30.697Z,6088.00
2018-08-31T10:43:30.686Z,7232.00
2018-08-31T10:44:30.678Z,7872.00
2018-08-31T10:45:30.963Z,6336.00
2018-08-31T10:46:30.670Z,13380.00
2018-08-31T10:47:30.638Z,7820.00
2018-08-31T10:48:30.627Z,7812.00
2018-08-31T10:49:30.621Z,8660.00
2018-08-31T10:50:30.623Z,9632.00
2018-08-31T10:52:30.942Z,9208.00
2018-08-31T10:53:31.995Z,9456.00
2018-08-31T10:54:30.559Z,10192.00
2018-08-31T10:55:30.547Z,10804.00
2018-08-31T10:56:30.534Z,9668.00
2018-08-31T10:57:30.725Z,9748.00
2018-08-31T10:58:30.809Z,10452.00
2018-08-31T10:59:30.503Z,10116.00
2018-08-31T11:00:30.542Z,10172.00
2018-08-31T11:01:31.894Z,10688.00
2018-08-31T11:02:30.466Z,9880.00
2018-08-31T11:03:43.488Z,10956.00
2018-08-31T11:04:36.710Z,10300.00
2018-08-31T11:05:30.636Z,10916.00
2018-08-31T11:06:30.474Z,11268.00
2018-08-31T11:07:30.613Z,10296.00
2018-08-31T11:08:30.400Z,9872.00
2018-08-31T11:09:30.392Z,9868.00
2018-08-31T11:10:30.681Z,10244.00
2018-08-31T11:11:30.578Z,10480.00
2018-08-31T11:12:30.453Z,11220.00
2018-08-31T11:13:30.551Z,10252.00
2018-08-31T11:14:30.340Z,9176.00
2018-08-31T11:15:31.743Z,10148.00
2018-08-31T11:16:30.620Z,10272.00
2018-08-31T11:17:30.514Z,10488.00
2018-08-31T11:18:49.515Z,9768.00
2018-08-31T11:19:30.287Z,9688.00
2018-08-31T11:20:30.481Z,9628.00
2018-08-31T11:21:30.318Z,10104.00
2018-08-31T11:22:33.603Z,9076.00
2018-08-31T11:23:33.280Z,9032.00
2018-08-31T11:24:30.844Z,9500.00
2018-08-31T11:25:36.495Z,9116.00
2018-08-31T11:26:30.419Z,9944.00
2018-08-31T11:27:56.285Z,9620.00
2018-08-31T11:28:31.615Z,9516.00
2018-08-31T11:29:30.189Z,10228.00
2018-08-31T11:30:30.380Z,11424.00
2018-08-31T11:31:30.377Z,10360.00
2018-08-31T11:32:36.430Z,9756.00
2018-08-31T11:33:36.721Z,8688.00
2018-08-31T11:34:30.345Z,10260.00
2018-08-31T11:35:30.741Z,8748.00
2018-08-31T11:36:30.123Z,11376.00
2018-08-31T11:37:30.315Z,10468.00
2018-08-31T11:38:30.103Z,9456.00
2018-08-31T11:40:30.442Z,8952.00
2018-08-31T11:41:30.692Z,9868.00
2018-08-31T11:42:30.671Z,9240.00
2018-08-31T11:43:30.081Z,8460.00
2018-08-31T11:44:34.742Z,8568.00
2018-08-31T11:45:30.240Z,10120.00
2018-08-31T11:46:30.683Z,11036.00
2018-08-31T11:47:31.822Z,11060.00
2018-08-31T11:48:30.094Z,10212.00
2018-08-31T11:49:42.822Z,11132.00
2018-08-31T11:50:29.988Z,10188.00
2018-08-31T11:51:29.980Z,9556.00
2018-08-31T11:52:30.071Z,8996.00
2018-08-31T11:53:30.170Z,7032.00
2018-08-31T11:54:30.859Z,6780.00
2018-08-31T11:55:29.942Z,7296.00
2018-08-31T11:56:31.347Z,4644.00
2018-08-31T11:57:30.134Z,4120.00
2018-08-31T11:58:31.377Z,3916.00
2018-08-31T11:59:29.909Z,4064.00
2018-08-31T12:00:29.898Z,4000.00
2018-08-31T12:01:30.281Z,4576.00
2018-08-31T12:02:36.154Z,4512.00
2018-08-31T12:03:29.861Z,4376.00
2018-08-31T12:04:36.269Z,4976.00
2018-08-31T12:05:30.047Z,4952.00
2018-08-31T12:06:29.834Z,4800.00
2018-08-31T12:07:29.820Z,4764.00
2018-08-31T12:08:30.111Z,4508.00
2018-08-31T12:09:29.801Z,4740.00
2018-08-31T12:10:29.847Z,4440.00
2018-08-31T12:11:29.778Z,4600.00
2018-08-31T12:12:31.184Z,4748.00
2018-08-31T12:13:29.760Z,4476.00
2018-08-31T12:14:29.749Z,4612.00
2018-08-31T12:15:36.003Z,4424.00
2018-08-31T12:16:29.726Z,5052.00
2018-08-31T12:17:29.716Z,4572.00
2018-08-31T12:18:29.913Z,5108.00
2018-08-31T12:19:29.895Z,5204.00
2018-08-31T12:20:29.679Z,5496.00
2018-08-31T12:21:30.043Z,6228.00
2018-08-31T12:22:29.657Z,7244.00
2018-08-31T12:23:29.650Z,8964.00
2018-08-31T12:25:02.959Z,8512.00
2018-08-31T12:25:29.625Z,7472.00
2018-08-31T12:26:29.816Z,7752.00
2018-08-31T12:27:29.606Z,7212.00
2018-08-31T12:28:31.306Z,7040.00
2018-08-31T12:29:29.702Z,7320.00
2018-08-31T12:31:03.102Z,7284.00
2018-08-31T12:31:30.289Z,7764.00
2018-08-31T12:32:29.672Z,7476.00
2018-08-31T12:33:29.661Z,7092.00
2018-08-31T12:34:30.147Z,6984.00
2018-08-31T12:35:29.688Z,7240.00
2018-08-31T12:36:29.705Z,7656.00
2018-08-31T12:37:29.492Z,7252.00
2018-08-31T12:38:29.479Z,7196.00
2018-08-31T12:39:29.670Z,6968.00
2018-08-31T12:40:29.763Z,6348.00
2018-08-31T12:41:30.107Z,6152.00
2018-08-31T12:42:32.468Z,6132.00
2018-08-31T12:43:30.034Z,6284.00
2018-08-31T12:44:29.414Z,6288.00
2018-08-31T12:45:29.403Z,6552.00
2018-08-31T12:46:31.140Z,7104.00
2018-08-31T12:47:29.641Z,7320.00
2018-08-31T12:48:29.983Z,8140.00
2018-08-31T12:49:29.572Z,8184.00
2018-08-31T12:50:29.564Z,8248.00
2018-08-31T12:51:29.544Z,8148.00
2018-08-31T12:52:29.775Z,7724.00
2018-08-31T12:53:29.322Z,7740.00
2018-08-31T12:54:29.319Z,10000.00
2018-08-31T12:56:30.706Z,8176.00
2018-08-31T12:57:32.322Z,7560.00
2018-08-31T12:58:29.322Z,7740.00
2018-08-31T12:59:32.285Z,7112.00
2018-08-31T13:00:35.512Z,8468.00
2018-08-31T13:01:42.227Z,9376.00
2018-08-31T13:02:32.260Z,8860.00
2018-08-31T13:03:29.215Z,8460.00
2018-08-31T13:04:30.972Z,8976.00
2018-08-31T13:05:29.448Z,8976.00
2018-08-31T13:06:35.587Z,10296.00
2018-08-31T13:07:35.566Z,10212.00
2018-08-31T13:08:29.900Z,8596.00
2018-08-31T13:09:29.357Z,9668.00
2018-08-31T13:10:29.646Z,9224.00
2018-08-31T13:11:29.132Z,8680.00
2018-08-31T13:12:29.133Z,10936.00
2018-08-31T13:13:29.115Z,10328.00
2018-08-31T13:14:29.102Z,15776.00
2018-08-31T13:15:29.092Z,9352.00
2018-08-31T13:16:30.499Z,9440.00
2018-08-31T13:17:29.576Z,10364.00
2018-08-31T13:18:48.267Z,19328.00
2018-08-31T13:19:29.053Z,11496.00
2018-08-31T13:20:29.244Z,25536.00
2018-08-31T13:21:30.445Z,31456.00
2018-08-31T13:22:29.020Z,11348.00
2018-08-31T13:23:29.062Z,12180.00
2018-08-31T13:25:29.493Z,41056.00
2018-08-31T13:26:30.397Z,11312.00
2018-08-31T13:27:32.004Z,41152.00
2018-08-31T13:28:29.163Z,12224.00
2018-08-31T13:29:29.003Z,11872.00
2018-08-31T13:30:28.943Z,29056.00
2018-08-31T13:31:29.139Z,20864.00
2018-08-31T13:32:30.338Z,13024.00
2018-08-31T13:33:28.921Z,17856.00
2018-08-31T13:34:28.907Z,10168.00
2018-08-31T13:36:29.147Z,11024.00
2018-08-31T13:38:03.891Z,15904.00
2018-08-31T13:38:28.879Z,13024.00
2018-08-31T13:39:28.867Z,9732.00
2018-08-31T13:40:28.860Z,9788.00
2018-08-31T13:41:28.976Z,11560.00
2018-08-31T13:43:05.263Z,11904.00
2018-08-31T13:43:28.965Z,9528.00
2018-08-31T13:44:29.262Z,11552.00
2018-08-31T13:45:30.611Z,11192.00
2018-08-31T13:46:30.372Z,9848.00
2018-08-31T13:47:29.600Z,10620.00
2018-08-31T13:48:29.136Z,9560.00
2018-08-31T13:49:29.182Z,10808.00
2018-08-31T13:50:28.906Z,9456.00